Mississippi Star — 9HA2441 — position and weather

sailwx.info

Track history (hours):
 
Tides and Currents Weather Stations Pressure Air Temp Water Temp Dewpoint Dewpoint Depression Visibility Wind Speed Wind Dir Waves Ship Positions

Mississippi Star

Last reported at 2017-Jul-23 22:30 UTC. Time now 2017-Jul-23 22:42 UTC.
Position N 50°10' W 002°01'.

Length 128 m; draft 8 m.

Type: Ship. MMSI: 248621000.

Date/timePositionNaut miles runAvg speedWind from/ knotsBaromVisibWave heightAir tempDewpointWater temp
2017-Jul-23 22:30N 50°10' W 002°01'5 9.8
2017-Jul-23 22:00N 50°11' W 001°53'5 9.1
2017-Jul-23 21:30N 50°13' W 001°46'4 8.6
2017-Jul-23 21:00N 50°14' W 001°40'4 8.0
2017-Jul-23 20:30N 50°15' W 001°34'4 7.7
2017-Jul-23 19:57N 50°16' W 001°28'27 9.3
2017-Jul-23 17:05N 50°24' W 000°47'212.3
2017-Jul-23 16:54N 50°24' W 000°44'612.5
2017-Jul-23 16:27N 50°26' W 000°35'612.9
2017-Jul-23 15:59N 50°27' W 000°26'612.9
2017-Jul-23 15:30N 50°29' W 000°17'612.8
2017-Jul-23 15:00N 50°30' W 000°07'612.7
2017-Jul-23 14:30N 50°32' E 000°02'612.6
2017-Jul-23 14:00N 50°34' E 000°12'612.3
2017-Jul-23 13:30N 50°36' E 000°21'611.8
2017-Jul-23 13:00N 50°37' E 000°30'611.2
2017-Jul-23 12:30N 50°40' E 000°38'510.9
2017-Jul-23 12:00N 50°43' E 000°45'510.4
2017-Jul-23 11:30N 50°46' E 000°52'13 9.9
2017-Jul-23 10:12N 50°54' E 001°08'210.3
2017-Jul-23 10:00N 50°56' E 001°10'510.4
2017-Jul-23 09:30N 50°59' E 001°16'611.4
2017-Jul-23 09:00N 51°03' E 001°23'713.2
2017-Jul-23 08:30N 51°07' E 001°32'714.6
2017-Jul-23 08:00N 51°11' E 001°41'714.4
2017-Jul-23 07:30N 51°17' E 001°48'714.4
2017-Jul-23 07:00N 51°23' E 001°53'713.6
2017-Jul-23 06:31N 51°29' E 001°59'612.8
2017-Jul-23 06:00N 51°34' E 002°06'612.4
2017-Jul-23 05:30N 51°38' E 002°13'7810.5
2017-Jul-22 22:08N 52°31' E 003°46'212.3
2017-Jul-22 22:00N 52°31' E 003°48'612.4
2017-Jul-22 21:30N 52°31' E 003°58'612.6
2017-Jul-22 21:00N 52°31' E 004°09'612.5
2017-Jul-22 20:30N 52°30' E 004°19'612.0
2017-Jul-22 20:01N 52°29' E 004°28'5 9.6
2017-Jul-22 19:30N 52°28' E 004°36'0 0.6
2017-Jul-22 19:00N 52°28' E 004°37'4 7.5
2017-Jul-22 18:30N 52°26' E 004°42'3 6.2
2017-Jul-22 18:00N 52°25' E 004°46'0 0.0
2017-Jul-22 17:30N 52°25' E 004°46'0 0.0
2017-Jul-22 17:00N 52°25' E 004°46'0 0.0
2017-Jul-22 16:30N 52°25' E 004°46'0 0.0
2017-Jul-20 12:51N 52°25' E 004°46'0 0.1
2017-Jul-20 12:30N 52°25' E 004°46'2 4.1
2017-Jul-20 12:00N 52°26' E 004°44'4 8.1
2017-Jul-20 11:30N 52°28' E 004°38'1 1.8
2017-Jul-20 11:00N 52°28' E 004°37'1 1.1
2017-Jul-20 10:30N 52°28' E 004°36'2 4.7
2017-Jul-20 10:00N 52°28' E 004°32'5 9.2
2017-Jul-20 09:30N 52°28' E 004°24'3 6.7
2017-Jul-20 09:00N 52°28' E 004°19'3 5.5
2017-Jul-20 08:30N 52°29' E 004°14'3 5.6
2017-Jul-20 08:00N 52°29' E 004°10'2 4.6
2017-Jul-20 07:30N 52°31' E 004°08'3 5.1
2017-Jul-20 07:00N 52°34' E 004°06'2 4.2
2017-Jul-20 06:30N 52°35' E 004°04'4 7.9
2017-Jul-20 06:00N 52°38' E 004°00'5 9.0
2017-Jul-20 05:30N 52°43' E 003°58'611.9
2017-Jul-20 04:59N 52°49' E 003°57'613.2
2017-Jul-20 04:30N 52°55' E 003°59'711.6
2017-Jul-20 03:54N 53°01' E 004°06'511.7
2017-Jul-20 03:30N 53°04' E 004°12'611.2
2017-Jul-20 03:00N 53°07' E 004°19'510.2
2017-Jul-20 02:30N 53°11' E 004°25'14210.8
2017-Jul-19 13:20N 54°01' E 008°08'612.7
2017-Jul-19 12:51N 53°60' E 008°19'815.5
2017-Jul-19 12:20N 53°58' E 008°32'515.5
2017-Jul-19 12:00N 53°56' E 008°40'714.5
2017-Jul-19 11:30N 53°51' E 008°48'714.2
2017-Jul-19 11:01N 53°51' E 009°00'611.2
2017-Jul-19 10:30N 53°54' E 009°09'0 0.3
2017-Jul-19 10:00N 53°54' E 009°09'1 1.2
2017-Jul-19 09:30N 53°54' E 009°10'1 1.0
2017-Jul-19 08:53N 53°55' E 009°10'0 0.0
2017-Jul-19 08:20N 53°55' E 009°10'0 0.0
2017-Jul-17 22:17N 53°55' E 009°10'0 0.0
2017-Jul-17 22:00N 53°55' E 009°10'1 2.8
2017-Jul-17 21:30N 53°54' E 009°09'0 0.1
2017-Jul-17 21:00N 53°54' E 009°09'2 3.1
2017-Jul-17 20:31N 53°53' E 009°06'1 2.2
2017-Jul-17 20:00N 53°52' E 009°04'510.8
2017-Jul-17 19:31N 53°51' E 008°56'612.3
2017-Jul-17 19:00N 53°51' E 008°45'611.2
2017-Jul-17 18:30N 53°56' E 008°40'612.3
2017-Jul-17 18:00N 53°58' E 008°30'612.3
2017-Jul-17 17:30N 53°59' E 008°20'611.5
2017-Jul-17 17:00N 53°59' E 008°10'4 0.3
2017-Jul-17 04:05N 54°03' E 008°07'0 2.0
2017-Jul-17 03:56N 54°03' E 008°08'3 6.6
2017-Jul-17 03:30N 54°01' E 008°04'510.9
2017-Jul-17 03:00N 53°58' E 007°56'711.4
2017-Jul-17 02:25N 53°56' E 007°45'3911.6
2017-Jul-16 23:02N 53°47' E 006°40'111.3
2017-Jul-16 22:57N 53°47' E 006°39'710.9
2017-Jul-16 22:20N 53°46' E 006°28'610.6
2017-Jul-16 21:47N 53°44' E 006°18'510.5
2017-Jul-16 21:17N 53°43' E 006°10'35 9.8
2017-Jul-16 17:45N 53°32' E 005°14'12 9.4
2017-Jul-16 16:27N 53°27' E 004°55'4 9.7
2017-Jul-16 16:00N 53°26' E 004°48'8 9.0
2017-Jul-16 15:06N 53°20' E 004°39'4 9.7
2017-Jul-16 14:40N 53°16' E 004°36'2 9.7
2017-Jul-16 14:29N 53°14' E 004°35'5 9.9
2017-Jul-16 14:00N 53°10' E 004°31'5 9.9
2017-Jul-16 13:29N 53°05' E 004°27'510.1
2017-Jul-16 13:00N 53°01' E 004°23'510.0
2017-Jul-16 12:30N 52°57' E 004°19'510.2
2017-Jul-16 12:00N 52°52' E 004°16'510.5
2017-Jul-16 11:30N 52°48' E 004°11'510.5
2017-Jul-16 11:00N 52°43' E 004°06'510.6
2017-Jul-16 10:30N 52°38' E 004°06'510.3
2017-Jul-16 10:00N 52°33' E 004°08'5 9.5
2017-Jul-16 09:30N 52°31' E 004°15'5 9.7
2017-Jul-16 09:00N 52°30' E 004°23'4 8.8
2017-Jul-16 08:31N 52°28' E 004°29'4 8.7
2017-Jul-16 08:00N 52°28' E 004°37'1 1.9
2017-Jul-16 07:30N 52°28' E 004°38'2 3.0
2017-Jul-16 07:00N 52°27' E 004°40'2 4.6
2017-Jul-16 06:30N 52°26' E 004°43'3 6.3
2017-Jul-16 06:00N 52°25' E 004°48'1 2.4
2017-Jul-16 05:29N 52°24' E 004°50'0 0.0
2017-Jul-16 04:59N 52°24' E 004°50'0 0.0
2017-Jul-16 04:29N 52°24' E 004°50'0 0.0
2017-Jul-16 03:59N 52°24' E 004°50'0 0.0
2017-Jul-16 03:29N 52°24' E 004°50'0 0.0
2017-Jul-16 02:59N 52°24' E 004°50'0 0.0
2017-Jul-16 02:29N 52°24' E 004°50'0 0.0
2017-Jul-16 01:56N 52°24' E 004°50'0 0.0
2017-Jul-16 01:29N 52°24' E 004°50'0 0.0
2017-Jul-16 00:59N 52°24' E 004°50'0 0.0
2017-Jul-16 00:29N 52°24' E 004°50'0 0.0
2017-Jul-15 23:59N 52°24' E 004°50'0 0.0
2017-Jul-15 23:29N 52°24' E 004°50'0 0.0
2017-Jul-15 22:59N 52°24' E 004°50'0 0.0
2017-Jul-15 22:29N 52°24' E 004°50'0 0.0
2017-Jul-15 21:59N 52°24' E 004°50'0 0.0
2017-Jul-15 21:29N 52°24' E 004°50'0 0.0
2017-Jul-15 20:59N 52°24' E 004°50'0 0.0
2017-Jul-15 20:29N 52°24' E 004°50'0 0.0
2017-Jul-15 19:59N 52°24' E 004°50'0 0.0
2017-Jul-15 19:29N 52°24' E 004°50'0 0.0
2017-Jul-15 18:59N 52°24' E 004°50'0 0.0
2017-Jul-15 18:29N 52°24' E 004°50'0 0.0
2017-Jul-15 17:59N 52°24' E 004°50'0 0.0
2017-Jul-15 17:29N 52°24' E 004°50'0 0.0
2017-Jul-15 16:59N 52°24' E 004°50'0 0.0
2017-Jul-15 16:29N 52°24' E 004°50'0 0.0
2017-Jul-15 15:56N 52°24' E 004°50'0 0.0
2017-Jul-15 15:29N 52°24' E 004°50'0 0.0
2017-Jul-15 14:59N 52°24' E 004°50'0 0.0
2017-Jul-15 13:59N 52°24' E 004°50'0 0.0
2017-Jul-15 13:29N 52°24' E 004°50'0 0.0
2017-Jul-15 12:59N 52°24' E 004°50'0 0.0
2017-Jul-15 12:29N 52°24' E 004°50'0 0.0
2017-Jul-15 11:59N 52°24' E 004°50'0 0.0
2017-Jul-15 11:29N 52°24' E 004°50'0 0.0
2017-Jul-15 10:59N 52°24' E 004°50'0 0.0
2017-Jul-15 10:29N 52°24' E 004°50'0 0.0
2017-Jul-15 09:59N 52°24' E 004°50'0 0.0
2017-Jul-15 09:29N 52°24' E 004°50'0 0.0
2017-Jul-15 09:00N 52°24' E 004°50'0 0.0
2017-Jul-15 08:30N 52°24' E 004°50'0 0.0
2017-Jul-15 08:00N 52°24' E 004°50'0 0.0
2017-Jul-14 22:54N 52°24' E 004°50'0 0.0
2017-Jul-14 22:30N 52°24' E 004°50'2 4.6
2017-Jul-14 22:01N 52°26' E 004°46'5 9.4
2017-Jul-14 21:31N 52°28' E 004°40'2 3.7
2017-Jul-14 21:00N 52°28' E 004°37'0 0.8
2017-Jul-14 20:31N 52°28' E 004°36'4 7.5
2017-Jul-14 20:00N 52°28' E 004°30'4 8.5
2017-Jul-14 19:30N 52°28' E 004°23'4 8.6
2017-Jul-14 19:00N 52°30' E 004°17'1 2.6
2017-Jul-14 18:28N 52°32' E 004°16'0 0.0
2017-Jul-14 17:58N 52°31' E 004°16'0 0.1
2017-Jul-14 17:28N 52°31' E 004°16'0 0.1
2017-Jul-14 16:58N 52°31' E 004°16'0 0.1
2017-Jul-14 16:28N 52°31' E 004°16'0 0.0
2017-Jul-14 15:58N 52°31' E 004°16'0 0.1
2017-Jul-14 15:28N 52°31' E 004°16'0 0.0
2017-Jul-14 14:58N 52°31' E 004°16'0 0.0
2017-Jul-14 14:28N 52°31' E 004°16'0 0.0
2017-Jul-14 13:58N 52°31' E 004°16'0 0.0
2017-Jul-14 13:28N 52°31' E 004°16'0 0.0
2017-Jul-14 12:58N 52°31' E 004°16'0 0.0
2017-Jul-14 12:28N 52°31' E 004°16'0 0.0
2017-Jul-14 11:58N 52°31' E 004°16'0 0.0
2017-Jul-14 11:28N 52°31' E 004°16'0 0.0
2017-Jul-14 10:58N 52°31' E 004°16'0 0.0
2017-Jul-14 10:28N 52°31' E 004°16'0 0.1
2017-Jul-14 09:58N 52°31' E 004°16'0 0.1
2017-Jul-14 09:28N 52°31' E 004°16'0 0.2
2017-Jul-14 08:58N 52°31' E 004°16'0 0.0
2017-Jul-14 08:28N 52°31' E 004°16'0 0.1
2017-Jul-14 08:01N 52°31' E 004°16'0 0.0
2017-Jul-14 07:28N 52°31' E 004°16'0 0.0
2017-Jul-14 06:58N 52°31' E 004°16'0 0.0
2017-Jul-14 06:28N 52°31' E 004°16'0 0.0
2017-Jul-14 05:58N 52°31' E 004°16'0 0.0
2017-Jul-14 05:31N 52°31' E 004°16'0 0.0
2017-Jul-14 04:58N 52°31' E 004°16'0 0.0
2017-Jul-14 04:31N 52°31' E 004°16'0 0.1
2017-Jul-14 03:58N 52°31' E 004°16'0 0.1
2017-Jul-14 03:28N 52°31' E 004°16'0 0.1
2017-Jul-14 02:55N 52°31' E 004°16'0 0.1
2017-Jul-14 02:31N 52°31' E 004°15'0 0.0
2017-Jul-14 01:58N 52°31' E 004°15'0 0.0
2017-Jul-14 01:28N 52°31' E 004°15'0 0.0
2017-Jul-14 00:54N 52°31' E 004°15'0 0.0
2017-Jul-14 00:28N 52°31' E 004°15'0 0.0
2017-Jul-13 23:55N 52°31' E 004°15'0 0.0
2017-Jul-13 23:28N 52°31' E 004°15'0 0.0
2017-Jul-13 22:58N 52°31' E 004°15'  
Track history (hours):
 
Tides and Currents Weather Stations Pressure Air Temp Water Temp Dewpoint Dewpoint Depression Visibility Wind Speed Wind Dir Waves Ship Positions

Mississippi Star

Last reported at 2017-Jul-23 22:30 UTC. Time now 2017-Jul-23 22:42 UTC.
Position N 50°10' W 002°01'.

Length 128 m; draft 8 m.

Type: Ship. MMSI: 248621000.

Date/timePositionNaut miles runAvg speedWind from/ knotsBaromVisibWave heightAir tempDewpointWater temp
2017-Jul-23 22:30N 50°10' W 002°01'5 9.8
2017-Jul-23 22:00N 50°11' W 001°53'5 9.1
2017-Jul-23 21:30N 50°13' W 001°46'4 8.6
2017-Jul-23 21:00N 50°14' W 001°40'4 8.0
2017-Jul-23 20:30N 50°15' W 001°34'4 7.7
2017-Jul-23 19:57N 50°16' W 001°28'27 9.3
2017-Jul-23 17:05N 50°24' W 000°47'212.3
2017-Jul-23 16:54N 50°24' W 000°44'612.5
2017-Jul-23 16:27N 50°26' W 000°35'612.9
2017-Jul-23 15:59N 50°27' W 000°26'612.9
2017-Jul-23 15:30N 50°29' W 000°17'612.8
2017-Jul-23 15:00N 50°30' W 000°07'612.7
2017-Jul-23 14:30N 50°32' E 000°02'612.6
2017-Jul-23 14:00N 50°34' E 000°12'612.3
2017-Jul-23 13:30N 50°36' E 000°21'611.8
2017-Jul-23 13:00N 50°37' E 000°30'611.2
2017-Jul-23 12:30N 50°40' E 000°38'510.9
2017-Jul-23 12:00N 50°43' E 000°45'510.4
2017-Jul-23 11:30N 50°46' E 000°52'13 9.9
2017-Jul-23 10:12N 50°54' E 001°08'210.3
2017-Jul-23 10:00N 50°56' E 001°10'510.4
2017-Jul-23 09:30N 50°59' E 001°16'611.4
2017-Jul-23 09:00N 51°03' E 001°23'713.2
2017-Jul-23 08:30N 51°07' E 001°32'714.6
2017-Jul-23 08:00N 51°11' E 001°41'714.4
2017-Jul-23 07:30N 51°17' E 001°48'714.4
2017-Jul-23 07:00N 51°23' E 001°53'713.6
2017-Jul-23 06:31N 51°29' E 001°59'612.8
2017-Jul-23 06:00N 51°34' E 002°06'612.4
2017-Jul-23 05:30N 51°38' E 002°13'7810.5
2017-Jul-22 22:08N 52°31' E 003°46'212.3
2017-Jul-22 22:00N 52°31' E 003°48'612.4
2017-Jul-22 21:30N 52°31' E 003°58'612.6
2017-Jul-22 21:00N 52°31' E 004°09'612.5
2017-Jul-22 20:30N 52°30' E 004°19'612.0
2017-Jul-22 20:01N 52°29' E 004°28'5 9.6
2017-Jul-22 19:30N 52°28' E 004°36'0 0.6
2017-Jul-22 19:00N 52°28' E 004°37'4 7.5
2017-Jul-22 18:30N 52°26' E 004°42'3 6.2
2017-Jul-22 18:00N 52°25' E 004°46'0 0.0
2017-Jul-22 17:30N 52°25' E 004°46'0 0.0
2017-Jul-22 17:00N 52°25' E 004°46'0 0.0
2017-Jul-22 16:30N 52°25' E 004°46'0 0.0
2017-Jul-20 12:51N 52°25' E 004°46'0 0.1
2017-Jul-20 12:30N 52°25' E 004°46'2 4.1
2017-Jul-20 12:00N 52°26' E 004°44'4 8.1
2017-Jul-20 11:30N 52°28' E 004°38'1 1.8
2017-Jul-20 11:00N 52°28' E 004°37'1 1.1
2017-Jul-20 10:30N 52°28' E 004°36'2 4.7
2017-Jul-20 10:00N 52°28' E 004°32'5 9.2
2017-Jul-20 09:30N 52°28' E 004°24'3 6.7
2017-Jul-20 09:00N 52°28' E 004°19'3 5.5
2017-Jul-20 08:30N 52°29' E 004°14'3 5.6
2017-Jul-20 08:00N 52°29' E 004°10'2 4.6
2017-Jul-20 07:30N 52°31' E 004°08'3 5.1
2017-Jul-20 07:00N 52°34' E 004°06'2 4.2
2017-Jul-20 06:30N 52°35' E 004°04'4 7.9
2017-Jul-20 06:00N 52°38' E 004°00'5 9.0
2017-Jul-20 05:30N 52°43' E 003°58'611.9
2017-Jul-20 04:59N 52°49' E 003°57'613.2
2017-Jul-20 04:30N 52°55' E 003°59'711.6
2017-Jul-20 03:54N 53°01' E 004°06'511.7
2017-Jul-20 03:30N 53°04' E 004°12'611.2
2017-Jul-20 03:00N 53°07' E 004°19'510.2
2017-Jul-20 02:30N 53°11' E 004°25'14210.8
2017-Jul-19 13:20N 54°01' E 008°08'612.7
2017-Jul-19 12:51N 53°60' E 008°19'815.5
2017-Jul-19 12:20N 53°58' E 008°32'515.5
2017-Jul-19 12:00N 53°56' E 008°40'714.5
2017-Jul-19 11:30N 53°51' E 008°48'714.2
2017-Jul-19 11:01N 53°51' E 009°00'611.2
2017-Jul-19 10:30N 53°54' E 009°09'0 0.3
2017-Jul-19 10:00N 53°54' E 009°09'1 1.2
2017-Jul-19 09:30N 53°54' E 009°10'1 1.0
2017-Jul-19 08:53N 53°55' E 009°10'0 0.0
2017-Jul-19 08:20N 53°55' E 009°10'0 0.0
2017-Jul-17 22:17N 53°55' E 009°10'0 0.0
2017-Jul-17 22:00N 53°55' E 009°10'1 2.8
2017-Jul-17 21:30N 53°54' E 009°09'0 0.1
2017-Jul-17 21:00N 53°54' E 009°09'2 3.1
2017-Jul-17 20:31N 53°53' E 009°06'1 2.2
2017-Jul-17 20:00N 53°52' E 009°04'510.8
2017-Jul-17 19:31N 53°51' E 008°56'612.3
2017-Jul-17 19:00N 53°51' E 008°45'611.2
2017-Jul-17 18:30N 53°56' E 008°40'612.3
2017-Jul-17 18:00N 53°58' E 008°30'612.3
2017-Jul-17 17:30N 53°59' E 008°20'611.5
2017-Jul-17 17:00N 53°59' E 008°10'4 0.3
2017-Jul-17 04:05N 54°03' E 008°07'0 2.0
2017-Jul-17 03:56N 54°03' E 008°08'3 6.6
2017-Jul-17 03:30N 54°01' E 008°04'510.9
2017-Jul-17 03:00N 53°58' E 007°56'711.4
2017-Jul-17 02:25N 53°56' E 007°45'3911.6
2017-Jul-16 23:02N 53°47' E 006°40'111.3
2017-Jul-16 22:57N 53°47' E 006°39'710.9
2017-Jul-16 22:20N 53°46' E 006°28'610.6
2017-Jul-16 21:47N 53°44' E 006°18'510.5
2017-Jul-16 21:17N 53°43' E 006°10'35 9.8
2017-Jul-16 17:45N 53°32' E 005°14'12 9.4
2017-Jul-16 16:27N 53°27' E 004°55'4 9.7
2017-Jul-16 16:00N 53°26' E 004°48'8 9.0
2017-Jul-16 15:06N 53°20' E 004°39'4 9.7
2017-Jul-16 14:40N 53°16' E 004°36'2 9.7
2017-Jul-16 14:29N 53°14' E 004°35'5 9.9
2017-Jul-16 14:00N 53°10' E 004°31'5 9.9
2017-Jul-16 13:29N 53°05' E 004°27'510.1
2017-Jul-16 13:00N 53°01' E 004°23'510.0
2017-Jul-16 12:30N 52°57' E 004°19'510.2
2017-Jul-16 12:00N 52°52' E 004°16'510.5
2017-Jul-16 11:30N 52°48' E 004°11'510.5
2017-Jul-16 11:00N 52°43' E 004°06'510.6
2017-Jul-16 10:30N 52°38' E 004°06'510.3
2017-Jul-16 10:00N 52°33' E 004°08'5 9.5
2017-Jul-16 09:30N 52°31' E 004°15'5 9.7
2017-Jul-16 09:00N 52°30' E 004°23'4 8.8
2017-Jul-16 08:31N 52°28' E 004°29'4 8.7
2017-Jul-16 08:00N 52°28' E 004°37'1 1.9
2017-Jul-16 07:30N 52°28' E 004°38'2 3.0
2017-Jul-16 07:00N 52°27' E 004°40'2 4.6
2017-Jul-16 06:30N 52°26' E 004°43'3 6.3
2017-Jul-16 06:00N 52°25' E 004°48'1 2.4
2017-Jul-16 05:29N 52°24' E 004°50'0 0.0
2017-Jul-16 04:59N 52°24' E 004°50'0 0.0
2017-Jul-16 04:29N 52°24' E 004°50'0 0.0
2017-Jul-16 03:59N 52°24' E 004°50'0 0.0
2017-Jul-16 03:29N 52°24' E 004°50'0 0.0
2017-Jul-16 02:59N 52°24' E 004°50'0 0.0
2017-Jul-16 02:29N 52°24' E 004°50'0 0.0
2017-Jul-16 01:56N 52°24' E 004°50'0 0.0
2017-Jul-16 01:29N 52°24' E 004°50'0 0.0
2017-Jul-16 00:59N 52°24' E 004°50'0 0.0
2017-Jul-16 00:29N 52°24' E 004°50'0 0.0
2017-Jul-15 23:59N 52°24' E 004°50'0 0.0
2017-Jul-15 23:29N 52°24' E 004°50'0 0.0
2017-Jul-15 22:59N 52°24' E 004°50'0 0.0
2017-Jul-15 22:29N 52°24' E 004°50'0 0.0
2017-Jul-15 21:59N 52°24' E 004°50'0 0.0
2017-Jul-15 21:29N 52°24' E 004°50'0 0.0
2017-Jul-15 20:59N 52°24' E 004°50'0 0.0
2017-Jul-15 20:29N 52°24' E 004°50'0 0.0
2017-Jul-15 19:59N 52°24' E 004°50'0 0.0
2017-Jul-15 19:29N 52°24' E 004°50'0 0.0
2017-Jul-15 18:59N 52°24' E 004°50'0 0.0
2017-Jul-15 18:29N 52°24' E 004°50'0 0.0
2017-Jul-15 17:59N 52°24' E 004°50'0 0.0
2017-Jul-15 17:29N 52°24' E 004°50'0 0.0
2017-Jul-15 16:59N 52°24' E 004°50'0 0.0
2017-Jul-15 16:29N 52°24' E 004°50'0 0.0
2017-Jul-15 15:56N 52°24' E 004°50'0 0.0
2017-Jul-15 15:29N 52°24' E 004°50'0 0.0
2017-Jul-15 14:59N 52°24' E 004°50'0 0.0
2017-Jul-15 13:59N 52°24' E 004°50'0 0.0
2017-Jul-15 13:29N 52°24' E 004°50'0 0.0
2017-Jul-15 12:59N 52°24' E 004°50'0 0.0
2017-Jul-15 12:29N 52°24' E 004°50'0 0.0
2017-Jul-15 11:59N 52°24' E 004°50'0 0.0
2017-Jul-15 11:29N 52°24' E 004°50'0 0.0
2017-Jul-15 10:59N 52°24' E 004°50'0 0.0
2017-Jul-15 10:29N 52°24' E 004°50'0 0.0
2017-Jul-15 09:59N 52°24' E 004°50'0 0.0
2017-Jul-15 09:29N 52°24' E 004°50'0 0.0
2017-Jul-15 09:00N 52°24' E 004°50'0 0.0
2017-Jul-15 08:30N 52°24' E 004°50'0 0.0
2017-Jul-15 08:00N 52°24' E 004°50'0 0.0
2017-Jul-14 22:54N 52°24' E 004°50'0 0.0
2017-Jul-14 22:30N 52°24' E 004°50'2 4.6
2017-Jul-14 22:01N 52°26' E 004°46'5 9.4
2017-Jul-14 21:31N 52°28' E 004°40'2 3.7
2017-Jul-14 21:00N 52°28' E 004°37'0 0.8
2017-Jul-14 20:31N 52°28' E 004°36'4 7.5
2017-Jul-14 20:00N 52°28' E 004°30'4 8.5
2017-Jul-14 19:30N 52°28' E 004°23'4 8.6
2017-Jul-14 19:00N 52°30' E 004°17'1 2.6
2017-Jul-14 18:28N 52°32' E 004°16'0 0.0
2017-Jul-14 17:58N 52°31' E 004°16'0 0.1
2017-Jul-14 17:28N 52°31' E 004°16'0 0.1
2017-Jul-14 16:58N 52°31' E 004°16'0 0.1
2017-Jul-14 16:28N 52°31' E 004°16'0 0.0
2017-Jul-14 15:58N 52°31' E 004°16'0 0.1
2017-Jul-14 15:28N 52°31' E 004°16'0 0.0
2017-Jul-14 14:58N 52°31' E 004°16'0 0.0
2017-Jul-14 14:28N 52°31' E 004°16'0 0.0
2017-Jul-14 13:58N 52°31' E 004°16'0 0.0
2017-Jul-14 13:28N 52°31' E 004°16'0 0.0
2017-Jul-14 12:58N 52°31' E 004°16'0 0.0
2017-Jul-14 12:28N 52°31' E 004°16'0 0.0
2017-Jul-14 11:58N 52°31' E 004°16'0 0.0
2017-Jul-14 11:28N 52°31' E 004°16'0 0.0
2017-Jul-14 10:58N 52°31' E 004°16'0 0.0
2017-Jul-14 10:28N 52°31' E 004°16'0 0.1
2017-Jul-14 09:58N 52°31' E 004°16'0 0.1
2017-Jul-14 09:28N 52°31' E 004°16'0 0.2
2017-Jul-14 08:58N 52°31' E 004°16'0 0.0
2017-Jul-14 08:28N 52°31' E 004°16'0 0.1
2017-Jul-14 08:01N 52°31' E 004°16'0 0.0
2017-Jul-14 07:28N 52°31' E 004°16'0 0.0
2017-Jul-14 06:58N 52°31' E 004°16'0 0.0
2017-Jul-14 06:28N 52°31' E 004°16'0 0.0
2017-Jul-14 05:58N 52°31' E 004°16'0 0.0
2017-Jul-14 05:31N 52°31' E 004°16'0 0.0
2017-Jul-14 04:58N 52°31' E 004°16'0 0.0
2017-Jul-14 04:31N 52°31' E 004°16'0 0.1
2017-Jul-14 03:58N 52°31' E 004°16'0 0.1
2017-Jul-14 03:28N 52°31' E 004°16'0 0.1
2017-Jul-14 02:55N 52°31' E 004°16'0 0.1
2017-Jul-14 02:31N 52°31' E 004°15'0 0.0
2017-Jul-14 01:58N 52°31' E 004°15'0 0.0
2017-Jul-14 01:28N 52°31' E 004°15'0 0.0
2017-Jul-14 00:54N 52°31' E 004°15'0 0.0
2017-Jul-14 00:28N 52°31' E 004°15'0 0.0
2017-Jul-13 23:55N 52°31' E 004°15'0 0.0
2017-Jul-13 23:28N 52°31' E 004°15'0 0.0
2017-Jul-13 22:58N 52°31' E 004°15'  

Dump ship's entire track history